Tall Timbers, Maryland
Current Conditions -  °F | °C
As of 8:53 PM on Saturday 25 Oct 2014 (Local Time) from KNUI Reporting Station
Clear Clear  
Wind Chill: 62°   Ceiling: Unl
Heat Index: 62°   Visibility: 10mi
Dew Point: 42°   Wind: 10mph
Humidity: 48%   Direction: 220°SW
Pressure: 29.76"   Gusts: NA
Location:  38.17°N, 76.55°W
Report Text: KNUI 260053Z AUTO 22009KT 10SM CLR 17/06 A2976 RMK AO2 SLP077 T01670056 $
Loading
Personal Weather Stations






























Interactive Weather Map
Tropical Storm Tracking
New forecast layout! Learn more

10-Day Weather Forecast

Advertisements
Track Severe Weather on mobile